Flight Track Log - Related Links

Times and Time Zones

All times are in EDT time to prevent confusion due to time zone crossing. See the GJS3618 flight status page for this flight to view local times or setup timezone preferences in your user account.

Time Position Orientation Groundspeed Altitude Reporting Facility
EDT Latitude Longitude Course Direction KTS MPH feet Rate Location/Type
Mon 02:59:54 PM 38.7594 -90.3611 14° North 180 207 1,800  Level FAA TRACON SMA TRACON (SMA)
Mon 03:00:15 PM 38.7736 -90.3736 325° Northwest 196 226 2,700 3,220 Climbing FAA TRACON SMA TRACON (SMA)
Mon 03:00:35 PM 38.7922 -90.3783 349° North 217 250 4,000 4,154 Climbing FAA TRACON SMA TRACON (SMA)
Mon 03:00:54 PM 38.8169 -90.3833 351° North 233 268 5,400 3,600 Climbing FAA TRACON SMA TRACON (SMA)
Mon 03:01:15 PM 38.8381 -90.3797 North 249 287 6,400 2,049 Climbing FAA TRACON SMA TRACON (SMA)
Mon 03:01:35 PM 38.8583 -90.3633 32° Northeast 272 313 6,800 2,462 Climbing FAA TRACON SMA TRACON (SMA)
Mon 03:01:54 PM 38.8850 -90.3400 34° Northeast 300 345 8,000 3,750 Climbing FAA TRACON SMA TRACON (SMA)
Mon 03:02:15 PM 38.9064 -90.3225 32° Northeast 301 346 9,300 3,073 Climbing FAA TRACON SMA TRACON (SMA)
Mon 03:02:35 PM 38.9269 -90.3022 38° Northeast 302 348 10,100 2,923 Climbing FAA TRACON SMA TRACON (SMA)
Mon 03:02:54 PM 38.9539 -90.2775 36° Northeast 309 356 11,200 2,550 Climbing FAA TRACON SMA TRACON (SMA)
Mon 03:03:00 PM 38.9508 -90.1275 18° North  Level FlightAware Approximate
Mon 03:03:15 PM 38.9767 -90.2564 36° Northeast 323 372 11,800  Level FAA TRACON SMA TRACON (SMA)
Mon 03:03:35 PM 39.0008 -90.2350 35° Northeast 339 390 12,400 2,300 Climbing FAA TRACON SMA TRACON (SMA)
Mon 03:04:00 PM 39.0368 -90.0933 14° North  Level FlightAware Approximate
Mon 03:04:15 PM 39.0575 -90.1844 35° Northeast 361 415 14,100  Level FAA TRACON SMA TRACON (SMA)
Mon 03:04:35 PM 39.0836 -90.1606 35° Northeast 372 428 14,700 2,000 Climbing FAA TRACON SMA TRACON (SMA)
Mon 03:04:54 PM 39.1178 -90.1300 35° Northeast 386 444 15,400 2,100 Climbing FAA TRACON SMA TRACON (SMA)
Mon 03:05:00 PM 39.1240 -90.0642 14° North  Level FlightAware Approximate
Mon 03:05:15 PM 39.1456 -90.1050 35° Northeast 396 456 16,100  Level FAA TRACON SMA TRACON (SMA)
Mon 03:05:35 PM 39.1739 -90.0800 34° Northeast 401 461 16,800 2,462 Climbing FAA TRACON SMA TRACON (SMA)
Mon 03:05:54 PM 39.2097 -90.0481 35° Northeast 405 466 17,700 3,000 Climbing FAA TRACON SMA TRACON (SMA)
Mon 03:06:15 PM 39.2386 -90.0225 34° Northeast 408 470 18,800 3,366 Climbing FAA TRACON SMA TRACON (SMA)
Mon 03:06:35 PM 39.2672 -89.9981 33° Northeast 404 465 20,000 3,231 Climbing FAA TRACON SMA TRACON (SMA)
Mon 03:06:54 PM 39.3022 -89.9678 34° Northeast 395 455 20,900 1,500 Climbing FAA TRACON SMA TRACON (SMA)
Mon 03:07:15 PM 39.3314 -89.9422 34° Northeast 405 466 21,000 146 Climbing FAA TRACON SMA TRACON (SMA)
Mon 03:07:35 PM 39.3639 -89.9217 26° Northeast 419 482 21,000  Level FAA TRACON SMA TRACON (SMA)
Mon 03:07:54 PM 39.4064 -89.8944 26° Northeast 440 506 21,000  Level FAA TRACON SMA TRACON (SMA)
Mon 03:08:15 PM 39.4408 -89.8731 26° Northeast 446 513 21,000  Level FAA TRACON SMA TRACON (SMA)
Mon 03:08:35 PM 39.4747 -89.8519 26° Northeast 443 510 21,000  Level FAA TRACON SMA TRACON (SMA)
Mon 03:08:54 PM 39.5164 -89.8256 26° Northeast 435 501 21,000  Level FAA TRACON SMA TRACON (SMA)
Mon 03:09:15 PM 39.5492 -89.8036 27° Northeast 431 496 21,000  Level FAA TRACON SMA TRACON (SMA)
Mon 03:09:35 PM 39.5828 -89.7853 23° Northeast 427 491 21,000  Level FAA TRACON SMA TRACON (SMA)
Mon 03:09:54 PM 39.6242 -89.7600 25° Northeast 426 490 21,000  Level FAA TRACON SMA TRACON (SMA)
Mon 03:10:15 PM 39.6325 -89.7547 26° Northeast 426 490 21,000  Level FAA TRACON SMA TRACON (SMA)
Mon 03:10:55 PM 39.7258 -89.7475 North 425 489 21,000  Level Kansas City Center
Mon 03:11:57 PM 39.8303 -89.6811 26° Northeast 421 484 21,000  Level Kansas City Center
Mon 03:13:00 PM 39.9267 -89.5936 35° Northeast 424 488 21,000  Level Kansas City Center
Mon 03:13:35 PM 39.9839 -89.5406 35° Northeast 428 493 21,000  Level Chicago Center
Mon 03:14:37 PM 40.0806 -89.4489 36° Northeast 430 495 21,000  Level Chicago Center
Mon 03:15:39 PM 40.1792 -89.3539 36° Northeast 440 506 21,000  Level Chicago Center
Mon 03:16:41 PM 40.2994 -89.2392 36° Northeast 447 514 21,000  Level Chicago Center
Mon 03:17:43 PM 40.4017 -89.1408 36° Northeast 455 524 21,000  Level Chicago Center
Mon 03:18:45 PM 40.5033 -89.0419 36° Northeast 457 526 21,000  Level Chicago Center
Mon 03:19:47 PM 40.6061 -88.9425 36° Northeast 459 528 21,000  Level Chicago Center
Mon 03:20:49 PM 40.7067 -88.8447 36° Northeast 459 528 21,000  Level Chicago Center
Mon 03:21:51 PM 40.8339 -88.7367 33° Northeast 457 526 21,000  Level Chicago Center
Mon 03:22:53 PM 40.9517 -88.7161 North 430 495 21,000 -629 Level Chicago Center
Mon 03:23:55 PM 41.0586 -88.6986 North 391 450 19,700 -1,161 Descending Chicago Center
Mon 03:24:57 PM 41.1511 -88.6828 North 341 392 18,600 -1,839 Descending Chicago Center
Mon 03:25:59 PM 41.2467 -88.6503 14° North 359 413 15,900 -2,661 Descending Chicago Center
Mon 03:27:01 PM 41.3436 -88.6075 18° North 366 421 13,100 -2,371 Descending Chicago Center
Mon 03:28:03 PM 41.4608 -88.5536 19° North 366 421 11,000 -1,016 Descending Chicago Center
Mon 03:29:05 PM 41.5361 -88.4553 44° Northeast 379 436 11,000  Level Chicago Center
Mon 03:30:07 PM 41.6142 -88.3586 43° Northeast 380 437 11,000  Level Chicago Center
Mon 03:31:09 PM 41.6914 -88.2656 42° Northeast 373 429 11,000 -341 Level Chicago Center
Mon 03:32:10 PM 41.7625 -88.1786 42° Northeast 344 396 10,300 -1,122 Descending Chicago Center
Mon 03:33:12 PM 41.8253 -88.1031 42° Northeast 307 353 8,700 -1,306 Descending Chicago Center
Mon 03:34:14 PM 41.8772 -88.0386 43° Northeast 267 307 7,600 -1,129 Descending Chicago Center
Mon 03:34:37 PM 41.8833 -88.0000 78° East 229 264 7,100 -390 Descending Chicago TRACON
Mon 03:35:31 PM 41.8833 -87.9167 90° East 240 276 7,100  Level Chicago TRACON
Mon 03:36:31 PM 41.8833 -87.8167 90° East 241 277 7,100  Level Chicago TRACON
Mon 03:37:31 PM 41.8833 -87.7333 90° East 236 272 7,100  Level Chicago TRACON
Mon 03:38:31 PM 41.8833 -87.6500 90° East 235 270 7,100 -478 Level Chicago TRACON
Mon 03:39:24 PM 41.8747 -87.5853 100° East 237 273 6,200 -1,096 Descending Chicago Center
Mon 03:40:26 PM 41.8767 -87.5025 88° East 230 265 5,000 -516 Descending Chicago Center
Mon 03:41:32 PM 41.8833 -87.4000 85° East 224 258 5,100  Climbing Chicago TRACON
Mon 03:42:29 PM 41.8958 -87.3183 78° East 230 265 5,000 -50 Descending Chicago Center
Mon 03:43:31 PM 41.9153 -87.2453 70° East 226 260 5,000  Level Chicago Center
Mon 03:44:33 PM 41.9644 -87.2431 North 188 216 5,000  Level Chicago Center
Mon 03:45:35 PM 41.9675 -87.2969 274° West 156 180 5,000  Level Chicago Center
Mon 03:46:37 PM 41.9692 -87.3533 272° West 153 176 5,000  Level Chicago Center
Mon 03:47:39 PM 41.9681 -87.4197 269° West 150 173 5,000 52 Level Chicago Center
Mon 03:48:32 PM 41.9667 -87.4667 268° West 154 177 5,100 53 Climbing Chicago TRACON
Mon 03:49:32 PM 41.9667 -87.5333 270° West 155 178 5,100  Level Chicago TRACON
Mon 03:50:32 PM 41.9667 -87.5833 270° West 153 176 5,100 -347 Level Chicago TRACON
Mon 03:51:33 PM 41.9667 -87.6333 270° West 150 173 4,400 -793 Descending Chicago TRACON
Mon 03:52:33 PM 41.9667 -87.7000 270° West 169 194 3,500 -950 Descending Chicago TRACON
Mon 03:53:33 PM 41.9667 -87.7667 270° West 163 188 2,500 -850 Descending Chicago TRACON
Mon 03:54:33 PM 41.9667 -87.8167 270° West 125 144 1,800 -700 Descending Chicago TRACON

Login

Don't have an account? Register now (free) for customized features, flight alerts, and more!